sensor_id;sensor_type;location;lat;lon;timestamp;pressure;altitude;pressure_sealevel;temperature;humidity
80693;BME280;70055;39.436;-77.514;2023-08-31T00:01:03;98844.17;;;21.23;40.51
80693;BME280;70055;39.436;-77.514;2023-08-31T00:03:31;98846.42;;;21.75;39.21
80693;BME280;70055;39.436;-77.514;2023-08-31T00:06:02;98847.65;;;22.80;37.80
80693;BME280;70055;39.436;-77.514;2023-08-31T00:08:30;98850.37;;;21.54;37.51
80693;BME280;70055;39.436;-77.514;2023-08-31T00:10:59;98846.96;;;22.71;36.82
80693;BME280;70055;39.436;-77.514;2023-08-31T00:13:28;98846.80;;;22.63;36.37
80693;BME280;70055;39.436;-77.514;2023-08-31T00:15:59;98851.14;;;22.96;36.64
80693;BME280;70055;39.436;-77.514;2023-08-31T00:18:27;98856.63;;;22.79;37.07
80693;BME280;70055;39.436;-77.514;2023-08-31T00:20:55;98858.87;;;22.08;37.45
80693;BME280;70055;39.436;-77.514;2023-08-31T00:23:23;98857.00;;;22.56;38.11
80693;BME280;70055;39.436;-77.514;2023-08-31T00:25:52;98859.65;;;21.41;39.44
80693;BME280;70055;39.436;-77.514;2023-08-31T00:28:21;98862.49;;;19.16;44.18
80693;BME280;70055;39.436;-77.514;2023-08-31T00:30:49;98864.99;;;19.44;44.25
80693;BME280;70055;39.436;-77.514;2023-08-31T00:33:18;98864.45;;;19.90;44.43
80693;BME280;70055;39.436;-77.514;2023-08-31T00:35:46;98871.20;;;20.28;42.55
80693;BME280;70055;39.436;-77.514;2023-08-31T00:38:14;98875.69;;;19.79;43.32
80693;BME280;70055;39.436;-77.514;2023-08-31T00:40:43;98885.12;;;18.96;45.70
80693;BME280;70055;39.436;-77.514;2023-08-31T00:43:13;98884.47;;;20.33;42.73
80693;BME280;70055;39.436;-77.514;2023-08-31T00:45:43;98893.84;;;21.54;39.99
80693;BME280;70055;39.436;-77.514;2023-08-31T00:48:12;98903.70;;;20.65;40.62
80693;BME280;70055;39.436;-77.514;2023-08-31T00:50:42;98908.32;;;20.09;42.13
80693;BME280;70055;39.436;-77.514;2023-08-31T00:53:11;98905.20;;;20.21;41.54
80693;BME280;70055;39.436;-77.514;2023-08-31T00:55:39;98908.83;;;18.94;44.74
80693;BME280;70055;39.436;-77.514;2023-08-31T00:58:07;98912.91;;;19.35;44.78
80693;BME280;70055;39.436;-77.514;2023-08-31T01:00:43;98912.26;;;18.99;43.90
80693;BME280;70055;39.436;-77.514;2023-08-31T01:03:23;98918.32;;;18.40;46.83
80693;BME280;70055;39.436;-77.514;2023-08-31T01:06:04;98910.50;;;18.75;45.64
80693;BME280;70055;39.436;-77.514;2023-08-31T01:08:41;98911.25;;;18.76;45.45
80693;BME280;70055;39.436;-77.514;2023-08-31T01:11:17;98915.54;;;18.35;47.29
80693;BME280;70055;39.436;-77.514;2023-08-31T01:13:53;98918.21;;;17.80;47.00
80693;BME280;70055;39.436;-77.514;2023-08-31T01:16:27;98920.72;;;18.73;45.40
80693;BME280;70055;39.436;-77.514;2023-08-31T01:18:57;98921.34;;;18.74;45.32
80693;BME280;70055;39.436;-77.514;2023-08-31T01:21:33;98923.69;;;18.75;45.42
80693;BME280;70055;39.436;-77.514;2023-08-31T01:24:02;98925.46;;;18.14;46.96
80693;BME280;70055;39.436;-77.514;2023-08-31T01:26:32;98926.03;;;18.18;46.12
80693;BME280;70055;39.436;-77.514;2023-08-31T01:29:01;98928.56;;;19.37;44.89
80693;BME280;70055;39.436;-77.514;2023-08-31T01:31:30;98928.48;;;18.90;44.15
80693;BME280;70055;39.436;-77.514;2023-08-31T01:34:00;98936.16;;;18.64;45.08
80693;BME280;70055;39.436;-77.514;2023-08-31T01:36:29;98936.18;;;17.57;47.07
80693;BME280;70055;39.436;-77.514;2023-08-31T01:39:03;98930.43;;;17.56;47.41
80693;BME280;70055;39.436;-77.514;2023-08-31T01:41:37;98928.99;;;17.29;50.07
80693;BME280;70055;39.436;-77.514;2023-08-31T01:44:09;98933.70;;;17.93;48.81
80693;BME280;70055;39.436;-77.514;2023-08-31T01:46:41;98937.53;;;17.73;48.89
80693;BME280;70055;39.436;-77.514;2023-08-31T01:49:11;98937.39;;;17.26;49.35
80693;BME280;70055;39.436;-77.514;2023-08-31T01:51:39;98935.99;;;17.42;48.88
80693;BME280;70055;39.436;-77.514;2023-08-31T01:54:07;98936.66;;;17.94;48.48
80693;BME280;70055;39.436;-77.514;2023-08-31T01:56:34;98941.85;;;18.77;47.57
80693;BME280;70055;39.436;-77.514;2023-08-31T01:59:02;98946.85;;;18.08;48.16
80693;BME280;70055;39.436;-77.514;2023-08-31T02:01:32;98950.20;;;17.48;47.84
80693;BME280;70055;39.436;-77.514;2023-08-31T02:04:00;98954.37;;;18.42;47.01
80693;BME280;70055;39.436;-77.514;2023-08-31T02:06:29;98956.08;;;17.63;47.44
80693;BME280;70055;39.436;-77.514;2023-08-31T02:09:05;98957.84;;;17.27;50.16
80693;BME280;70055;39.436;-77.514;2023-08-31T02:11:34;98959.45;;;16.92;50.74
80693;BME280;70055;39.436;-77.514;2023-08-31T02:14:02;98954.80;;;17.83;49.39
80693;BME280;70055;39.436;-77.514;2023-08-31T02:16:31;98954.62;;;18.29;48.07
80693;BME280;70055;39.436;-77.514;2023-08-31T02:18:59;98962.73;;;18.54;47.37
80693;BME280;70055;39.436;-77.514;2023-08-31T02:21:27;98972.20;;;17.55;47.78
80693;BME280;70055;39.436;-77.514;2023-08-31T02:23:55;98980.77;;;17.93;49.55
80693;BME280;70055;39.436;-77.514;2023-08-31T02:26:25;98983.32;;;17.57;49.19
80693;BME280;70055;39.436;-77.514;2023-08-31T02:28:54;98988.05;;;18.31;48.39
80693;BME280;70055;39.436;-77.514;2023-08-31T02:31:23;98994.66;;;18.40;48.64
80693;BME280;70055;39.436;-77.514;2023-08-31T02:33:51;98998.93;;;18.64;46.46
80693;BME280;70055;39.436;-77.514;2023-08-31T02:36:19;99000.92;;;18.10;47.63
80693;BME280;70055;39.436;-77.514;2023-08-31T02:38:47;99003.64;;;18.61;47.43
80693;BME280;70055;39.436;-77.514;2023-08-31T02:41:16;99001.17;;;17.24;48.43
80693;BME280;70055;39.436;-77.514;2023-08-31T02:43:43;99008.14;;;18.78;47.05
80693;BME280;70055;39.436;-77.514;2023-08-31T02:46:12;99007.48;;;18.08;47.11
80693;BME280;70055;39.436;-77.514;2023-08-31T02:48:41;99011.55;;;17.39;50.05
80693;BME280;70055;39.436;-77.514;2023-08-31T02:51:09;99013.93;;;17.79;50.15
80693;BME280;70055;39.436;-77.514;2023-08-31T02:53:38;99014.45;;;17.39;48.55
80693;BME280;70055;39.436;-77.514;2023-08-31T02:56:05;99021.37;;;17.58;49.14
80693;BME280;70055;39.436;-77.514;2023-08-31T02:58:33;99025.73;;;16.72;50.78
80693;BME280;70055;39.436;-77.514;2023-08-31T03:01:09;99028.24;;;16.53;52.61
80693;BME280;70055;39.436;-77.514;2023-08-31T03:03:37;99029.00;;;16.64;51.35
80693;BME280;70055;39.436;-77.514;2023-08-31T03:06:07;99036.11;;;15.35;54.15
80693;BME280;70055;39.436;-77.514;2023-08-31T03:08:36;99036.88;;;16.09;54.15
80693;BME280;70055;39.436;-77.514;2023-08-31T03:11:05;99053.69;;;15.61;53.50
80693;BME280;70055;39.436;-77.514;2023-08-31T03:13:33;99056.07;;;16.85;52.31
80693;BME280;70055;39.436;-77.514;2023-08-31T03:16:02;99050.01;;;17.27;51.29
80693;BME280;70055;39.436;-77.514;2023-08-31T03:18:30;99045.85;;;17.41;49.39
80693;BME280;70055;39.436;-77.514;2023-08-31T03:20:59;99049.09;;;16.87;49.63
80693;BME280;70055;39.436;-77.514;2023-08-31T03:23:29;99055.37;;;16.52;50.79
80693;BME280;70055;39.436;-77.514;2023-08-31T03:25:57;99056.23;;;17.47;49.40
80693;BME280;70055;39.436;-77.514;2023-08-31T03:28:26;99055.45;;;17.15;50.29
80693;BME280;70055;39.436;-77.514;2023-08-31T03:30:55;99065.27;;;16.34;50.99
80693;BME280;70055;39.436;-77.514;2023-08-31T03:33:23;99069.33;;;17.24;50.73
80693;BME280;70055;39.436;-77.514;2023-08-31T03:35:51;99076.60;;;16.82;50.87
80693;BME280;70055;39.436;-77.514;2023-08-31T03:38:19;99079.06;;;17.25;49.31
80693;BME280;70055;39.436;-77.514;2023-08-31T03:40:53;99073.71;;;18.98;46.98
80693;BME280;70055;39.436;-77.514;2023-08-31T03:43:21;99073.70;;;18.24;47.12
80693;BME280;70055;39.436;-77.514;2023-08-31T03:45:53;99076.36;;;18.85;46.42
80693;BME280;70055;39.436;-77.514;2023-08-31T03:48:20;99078.02;;;17.99;47.26
80693;BME280;70055;39.436;-77.514;2023-08-31T03:50:50;99080.27;;;18.28;47.92
80693;BME280;70055;39.436;-77.514;2023-08-31T03:53:18;99081.83;;;19.11;46.26
80693;BME280;70055;39.436;-77.514;2023-08-31T03:55:46;99080.10;;;18.54;46.35
80693;BME280;70055;39.436;-77.514;2023-08-31T03:58:14;99071.63;;;18.78;46.62
80693;BME280;70055;39.436;-77.514;2023-08-31T04:00:42;99070.17;;;18.36;46.28
80693;BME280;70055;39.436;-77.514;2023-08-31T04:03:10;99073.70;;;18.24;47.54
80693;BME280;70055;39.436;-77.514;2023-08-31T04:05:38;99071.08;;;19.03;44.77
80693;BME280;70055;39.436;-77.514;2023-08-31T04:08:07;99067.48;;;18.52;45.71
80693;BME280;70055;39.436;-77.514;2023-08-31T04:10:34;99066.98;;;18.66;46.77
80693;BME280;70055;39.436;-77.514;2023-08-31T04:13:02;99064.74;;;19.33;45.46
80693;BME280;70055;39.436;-77.514;2023-08-31T04:15:32;99065.24;;;19.35;45.00
80693;BME280;70055;39.436;-77.514;2023-08-31T04:18:00;99067.94;;;19.36;45.03
80693;BME280;70055;39.436;-77.514;2023-08-31T04:20:29;99066.69;;;19.32;44.78
80693;BME280;70055;39.436;-77.514;2023-08-31T04:22:57;99061.26;;;17.99;47.21
80693;BME280;70055;39.436;-77.514;2023-08-31T04:25:28;99066.05;;;18.29;47.76
80693;BME280;70055;39.436;-77.514;2023-08-31T04:27:56;99076.49;;;17.97;47.57
80693;BME280;70055;39.436;-77.514;2023-08-31T04:30:24;99080.77;;;17.87;47.77
80693;BME280;70055;39.436;-77.514;2023-08-31T04:32:51;99075.03;;;17.63;46.93
80693;BME280;70055;39.436;-77.514;2023-08-31T04:35:21;99076.86;;;17.75;48.03
80693;BME280;70055;39.436;-77.514;2023-08-31T04:37:49;99081.17;;;17.77;48.51
80693;BME280;70055;39.436;-77.514;2023-08-31T04:40:18;99083.98;;;18.64;45.90
80693;BME280;70055;39.436;-77.514;2023-08-31T04:42:46;99090.49;;;18.81;45.11
80693;BME280;70055;39.436;-77.514;2023-08-31T04:45:14;99086.74;;;17.14;49.40
80693;BME280;70055;39.436;-77.514;2023-08-31T04:47:42;99082.27;;;16.82;49.49
80693;BME280;70055;39.436;-77.514;2023-08-31T04:50:10;99085.56;;;18.67;47.07
80693;BME280;70055;39.436;-77.514;2023-08-31T04:52:38;99092.11;;;19.07;46.05
80693;BME280;70055;39.436;-77.514;2023-08-31T04:55:07;99085.42;;;18.71;46.55
80693;BME280;70055;39.436;-77.514;2023-08-31T04:57:35;99078.52;;;18.00;47.62
80693;BME280;70055;39.436;-77.514;2023-08-31T05:00:04;99073.98;;;17.89;49.19
80693;BME280;70055;39.436;-77.514;2023-08-31T05:02:33;99070.81;;;18.57;47.46
80693;BME280;70055;39.436;-77.514;2023-08-31T05:05:01;99075.41;;;17.89;48.48
80693;BME280;70055;39.436;-77.514;2023-08-31T05:07:29;99072.96;;;17.03;49.04
80693;BME280;70055;39.436;-77.514;2023-08-31T05:09:57;99060.00;;;16.75;52.21
80693;BME280;70055;39.436;-77.514;2023-08-31T05:12:25;99058.38;;;17.04;51.71
80693;BME280;70055;39.436;-77.514;2023-08-31T05:14:53;99061.25;;;17.19;51.36
80693;BME280;70055;39.436;-77.514;2023-08-31T05:17:22;99067.15;;;16.26;53.14
80693;BME280;70055;39.436;-77.514;2023-08-31T05:19:50;99058.93;;;16.34;53.80
80693;BME280;70055;39.436;-77.514;2023-08-31T05:22:18;99049.29;;;16.43;53.08
80693;BME280;70055;39.436;-77.514;2023-08-31T05:24:46;99044.62;;;17.52;51.12
80693;BME280;70055;39.436;-77.514;2023-08-31T05:27:14;99045.24;;;17.53;50.11
80693;BME280;70055;39.436;-77.514;2023-08-31T05:29:43;99041.78;;;17.88;49.19
80693;BME280;70055;39.436;-77.514;2023-08-31T05:32:11;99033.94;;;17.31;49.85
80693;BME280;70055;39.436;-77.514;2023-08-31T05:34:39;99027.43;;;16.82;50.93
80693;BME280;70055;39.436;-77.514;2023-08-31T05:37:07;99026.08;;;17.17;50.54
80693;BME280;70055;39.436;-77.514;2023-08-31T05:39:35;99026.30;;;17.43;49.19
80693;BME280;70055;39.436;-77.514;2023-08-31T05:42:03;99030.66;;;17.30;49.47
80693;BME280;70055;39.436;-77.514;2023-08-31T05:44:31;99028.76;;;17.24;49.05
80693;BME280;70055;39.436;-77.514;2023-08-31T05:46:59;99028.08;;;17.07;49.31
80693;BME280;70055;39.436;-77.514;2023-08-31T05:49:27;99025.97;;;17.31;48.42
80693;BME280;70055;39.436;-77.514;2023-08-31T05:51:55;99029.85;;;18.75;46.18
80693;BME280;70055;39.436;-77.514;2023-08-31T05:54:24;99037.55;;;16.92;49.67
80693;BME280;70055;39.436;-77.514;2023-08-31T05:56:52;99034.75;;;18.19;47.47
80693;BME280;70055;39.436;-77.514;2023-08-31T05:59:20;99035.90;;;17.86;47.69
80693;BME280;70055;39.436;-77.514;2023-08-31T06:01:48;99028.56;;;18.32;46.19
80693;BME280;70055;39.436;-77.514;2023-08-31T06:04:16;99033.25;;;17.42;49.30
80693;BME280;70055;39.436;-77.514;2023-08-31T06:06:44;99036.04;;;16.92;51.19
80693;BME280;70055;39.436;-77.514;2023-08-31T06:09:12;99040.59;;;17.84;48.27
80693;BME280;70055;39.436;-77.514;2023-08-31T06:11:40;99048.51;;;16.80;49.40
80693;BME280;70055;39.436;-77.514;2023-08-31T06:14:08;99054.31;;;17.49;47.98
80693;BME280;70055;39.436;-77.514;2023-08-31T06:16:37;99054.45;;;17.56;47.34
80693;BME280;70055;39.436;-77.514;2023-08-31T06:19:05;99061.40;;;17.66;47.83
80693;BME280;70055;39.436;-77.514;2023-08-31T06:21:32;99064.96;;;18.18;47.33
80693;BME280;70055;39.436;-77.514;2023-08-31T06:24:00;99061.89;;;17.22;49.64
80693;BME280;70055;39.436;-77.514;2023-08-31T06:26:28;99060.51;;;16.26;51.19
80693;BME280;70055;39.436;-77.514;2023-08-31T06:28:56;99063.08;;;16.47;51.76
80693;BME280;70055;39.436;-77.514;2023-08-31T06:31:25;99066.31;;;18.27;47.89
80693;BME280;70055;39.436;-77.514;2023-08-31T06:33:53;99074.26;;;17.15;48.80
80693;BME280;70055;39.436;-77.514;2023-08-31T06:36:23;99067.92;;;17.30;48.16
80693;BME280;70055;39.436;-77.514;2023-08-31T06:38:51;99061.44;;;18.44;46.35
80693;BME280;70055;39.436;-77.514;2023-08-31T06:41:19;99070.27;;;17.88;47.41
80693;BME280;70055;39.436;-77.514;2023-08-31T06:43:47;99068.70;;;18.32;47.24
80693;BME280;70055;39.436;-77.514;2023-08-31T06:46:15;99065.11;;;17.99;46.93
80693;BME280;70055;39.436;-77.514;2023-08-31T06:48:43;99057.37;;;18.04;46.80
80693;BME280;70055;39.436;-77.514;2023-08-31T06:51:11;99058.80;;;15.50;54.16
80693;BME280;70055;39.436;-77.514;2023-08-31T06:53:38;99056.07;;;16.76;51.02
80693;BME280;70055;39.436;-77.514;2023-08-31T06:56:06;99053.61;;;17.33;49.44
80693;BME280;70055;39.436;-77.514;2023-08-31T06:58:34;99054.45;;;16.81;50.47
80693;BME280;70055;39.436;-77.514;2023-08-31T07:01:06;99052.30;;;16.01;53.27
80693;BME280;70055;39.436;-77.514;2023-08-31T07:03:34;99051.65;;;17.32;50.30
80693;BME280;70055;39.436;-77.514;2023-08-31T07:06:03;99052.44;;;16.41;51.91
80693;BME280;70055;39.436;-77.514;2023-08-31T07:08:31;99047.82;;;16.83;49.22
80693;BME280;70055;39.436;-77.514;2023-08-31T07:10:58;99048.80;;;17.21;50.25
80693;BME280;70055;39.436;-77.514;2023-08-31T07:13:27;99047.21;;;15.44;54.16
80693;BME280;70055;39.436;-77.514;2023-08-31T07:15:54;99038.81;;;16.32;51.90
80693;BME280;70055;39.436;-77.514;2023-08-31T07:18:22;99029.39;;;17.56;49.33
80693;BME280;70055;39.436;-77.514;2023-08-31T07:20:50;99024.39;;;17.13;49.68
80693;BME280;70055;39.436;-77.514;2023-08-31T07:23:19;99019.66;;;17.39;49.12
80693;BME280;70055;39.436;-77.514;2023-08-31T07:25:46;99015.62;;;17.53;48.23
80693;BME280;70055;39.436;-77.514;2023-08-31T07:28:14;99012.92;;;17.80;48.87
80693;BME280;70055;39.436;-77.514;2023-08-31T07:30:43;99001.98;;;18.26;47.32
80693;BME280;70055;39.436;-77.514;2023-08-31T07:33:11;99005.64;;;17.39;48.30
80693;BME280;70055;39.436;-77.514;2023-08-31T07:35:39;99013.93;;;16.96;48.87
80693;BME280;70055;39.436;-77.514;2023-08-31T07:38:07;99016.01;;;17.37;47.53
80693;BME280;70055;39.436;-77.514;2023-08-31T07:40:35;99013.71;;;16.40;50.03
80693;BME280;70055;39.436;-77.514;2023-08-31T07:43:03;99004.98;;;16.68;49.39
80693;BME280;70055;39.436;-77.514;2023-08-31T07:45:31;99007.55;;;16.56;49.88
80693;BME280;70055;39.436;-77.514;2023-08-31T07:47:59;99013.56;;;17.07;48.68
80693;BME280;70055;39.436;-77.514;2023-08-31T07:50:27;99017.74;;;17.57;46.76
80693;BME280;70055;39.436;-77.514;2023-08-31T07:52:55;99008.45;;;17.14;47.56
80693;BME280;70055;39.436;-77.514;2023-08-31T07:55:23;99008.26;;;15.95;51.19
80693;BME280;70055;39.436;-77.514;2023-08-31T07:57:51;99004.69;;;15.87;51.44
80693;BME280;70055;39.436;-77.514;2023-08-31T08:00:19;99002.46;;;17.23;48.30
80693;BME280;70055;39.436;-77.514;2023-08-31T08:02:47;98993.22;;;17.37;47.84
80693;BME280;70055;39.436;-77.514;2023-08-31T08:05:16;98990.64;;;18.05;46.54
80693;BME280;70055;39.436;-77.514;2023-08-31T08:07:43;98992.27;;;17.72;46.31
80693;BME280;70055;39.436;-77.514;2023-08-31T08:10:12;98997.11;;;17.44;47.62
80693;BME280;70055;39.436;-77.514;2023-08-31T08:12:41;99004.44;;;17.03;48.43
80693;BME280;70055;39.436;-77.514;2023-08-31T08:15:09;99018.38;;;16.49;48.78
80693;BME280;70055;39.436;-77.514;2023-08-31T08:17:38;99016.47;;;16.50;49.19
80693;BME280;70055;39.436;-77.514;2023-08-31T08:20:07;99019.71;;;18.04;47.28
80693;BME280;70055;39.436;-77.514;2023-08-31T08:22:35;99017.81;;;17.02;48.95
80693;BME280;70055;39.436;-77.514;2023-08-31T08:25:03;99016.74;;;18.17;45.86
80693;BME280;70055;39.436;-77.514;2023-08-31T08:27:30;99028.34;;;17.52;46.92
80693;BME280;70055;39.436;-77.514;2023-08-31T08:29:58;99030.76;;;16.91;48.54
80693;BME280;70055;39.436;-77.514;2023-08-31T08:32:26;99031.48;;;17.09;48.47
80693;BME280;70055;39.436;-77.514;2023-08-31T08:34:54;99036.21;;;17.06;48.18
80693;BME280;70055;39.436;-77.514;2023-08-31T08:37:22;99036.48;;;17.43;46.91
80693;BME280;70055;39.436;-77.514;2023-08-31T08:39:50;99035.94;;;17.50;46.19
80693;BME280;70055;39.436;-77.514;2023-08-31T08:42:20;99039.81;;;17.66;46.19
80693;BME280;70055;39.436;-77.514;2023-08-31T08:44:52;99037.54;;;16.18;48.94
80693;BME280;70055;39.436;-77.514;2023-08-31T08:47:20;99035.02;;;15.30;54.14
80693;BME280;70055;39.436;-77.514;2023-08-31T08:49:49;99029.10;;;16.06;51.79
80693;BME280;70055;39.436;-77.514;2023-08-31T08:52:17;99030.67;;;16.72;49.95
80693;BME280;70055;39.436;-77.514;2023-08-31T08:54:45;99048.90;;;14.60;53.45
80693;BME280;70055;39.436;-77.514;2023-08-31T08:57:14;99034.67;;;16.69;50.98
80693;BME280;70055;39.436;-77.514;2023-08-31T08:59:43;99025.34;;;16.02;51.84
80693;BME280;70055;39.436;-77.514;2023-08-31T09:02:11;99023.60;;;16.00;53.62
80693;BME280;70055;39.436;-77.514;2023-08-31T09:04:39;99026.23;;;14.87;55.08
80693;BME280;70055;39.436;-77.514;2023-08-31T09:07:07;99024.91;;;15.75;54.03
80693;BME280;70055;39.436;-77.514;2023-08-31T09:09:49;99032.52;;;16.64;51.68
80693;BME280;70055;39.436;-77.514;2023-08-31T09:12:17;99036.81;;;17.68;49.01
80693;BME280;70055;39.436;-77.514;2023-08-31T09:14:57;99044.79;;;17.89;46.97
80693;BME280;70055;39.436;-77.514;2023-08-31T09:17:28;99043.36;;;18.23;45.40
80693;BME280;70055;39.436;-77.514;2023-08-31T09:20:06;99043.98;;;18.71;44.61
80693;BME280;70055;39.436;-77.514;2023-08-31T09:22:34;99052.48;;;18.37;44.95
80693;BME280;70055;39.436;-77.514;2023-08-31T09:25:09;99063.84;;;16.06;50.25
80693;BME280;70055;39.436;-77.514;2023-08-31T09:27:38;99063.78;;;17.80;46.50
80693;BME280;70055;39.436;-77.514;2023-08-31T09:30:08;99065.82;;;18.14;45.40
80693;BME280;70055;39.436;-77.514;2023-08-31T09:32:36;99067.00;;;18.00;45.19
80693;BME280;70055;39.436;-77.514;2023-08-31T09:35:09;99069.26;;;17.66;48.07
80693;BME280;70055;39.436;-77.514;2023-08-31T09:37:37;99071.88;;;17.73;47.78
80693;BME280;70055;39.436;-77.514;2023-08-31T09:40:06;99066.46;;;17.33;47.94
80693;BME280;70055;39.436;-77.514;2023-08-31T09:42:38;99064.35;;;17.57;47.30
80693;BME280;70055;39.436;-77.514;2023-08-31T09:45:07;99065.77;;;17.47;46.95
80693;BME280;70055;39.436;-77.514;2023-08-31T09:47:41;99072.89;;;17.28;47.56
80693;BME280;70055;39.436;-77.514;2023-08-31T09:50:10;99072.92;;;17.62;47.86
80693;BME280;70055;39.436;-77.514;2023-08-31T09:52:39;99072.44;;;17.87;47.07
80693;BME280;70055;39.436;-77.514;2023-08-31T09:55:08;99071.67;;;17.25;47.30
80693;BME280;70055;39.436;-77.514;2023-08-31T09:57:36;99073.57;;;17.92;46.98
80693;BME280;70055;39.436;-77.514;2023-08-31T10:00:07;99083.85;;;16.94;48.58
80693;BME280;70055;39.436;-77.514;2023-08-31T10:02:35;99090.86;;;16.77;48.27
80693;BME280;70055;39.436;-77.514;2023-08-31T10:05:04;99096.97;;;15.88;50.69
80693;BME280;70055;39.436;-77.514;2023-08-31T10:07:32;99091.79;;;16.36;49.01
80693;BME280;70055;39.436;-77.514;2023-08-31T10:10:00;99094.90;;;17.81;46.64
80693;BME280;70055;39.436;-77.514;2023-08-31T10:12:28;99098.56;;;16.05;47.89
80693;BME280;70055;39.436;-77.514;2023-08-31T10:14:58;99106.40;;;16.79;49.33
80693;BME280;70055;39.436;-77.514;2023-08-31T10:17:27;99106.97;;;15.47;51.31
80693;BME280;70055;39.436;-77.514;2023-08-31T10:19:55;99103.91;;;17.33;49.13
80693;BME280;70055;39.436;-77.514;2023-08-31T10:22:25;99107.63;;;16.33;49.73
80693;BME280;70055;39.436;-77.514;2023-08-31T10:25:02;99116.49;;;16.24;51.48
80693;BME280;70055;39.436;-77.514;2023-08-31T10:27:37;99114.58;;;15.93;51.41
80693;BME280;70055;39.436;-77.514;2023-08-31T10:30:19;99117.94;;;16.36;50.27
80693;BME280;70055;39.436;-77.514;2023-08-31T10:33:20;99126.76;;;15.13;53.03
80693;BME280;70055;39.436;-77.514;2023-08-31T10:35:50;99130.23;;;15.31;52.13
80693;BME280;70055;39.436;-77.514;2023-08-31T10:38:26;99129.53;;;16.03;50.84
80693;BME280;70055;39.436;-77.514;2023-08-31T10:41:17;99139.16;;;16.54;49.48
80693;BME280;70055;39.436;-77.514;2023-08-31T10:43:47;99139.02;;;16.56;48.21
80693;BME280;70055;39.436;-77.514;2023-08-31T10:46:18;99144.23;;;17.20;47.99
80693;BME280;70055;39.436;-77.514;2023-08-31T10:48:50;99147.16;;;16.96;47.79
80693;BME280;70055;39.436;-77.514;2023-08-31T10:51:21;99155.47;;;16.75;48.31
80693;BME280;70055;39.436;-77.514;2023-08-31T10:53:49;99165.79;;;15.14;52.30
80693;BME280;70055;39.436;-77.514;2023-08-31T10:56:18;99159.10;;;16.89;49.02
80693;BME280;70055;39.436;-77.514;2023-08-31T10:59:02;99163.10;;;16.72;50.03
80693;BME280;70055;39.436;-77.514;2023-08-31T11:02:03;99162.43;;;15.75;50.57
80693;BME280;70055;39.436;-77.514;2023-08-31T11:04:53;99170.97;;;16.15;50.56
80693;BME280;70055;39.436;-77.514;2023-08-31T11:07:26;99176.01;;;15.52;51.37
80693;BME280;70055;39.436;-77.514;2023-08-31T11:10:10;99178.93;;;15.73;51.66
80693;BME280;70055;39.436;-77.514;2023-08-31T11:12:39;99188.54;;;16.04;50.81
80693;BME280;70055;39.436;-77.514;2023-08-31T11:15:08;99189.98;;;17.05;48.59
80693;BME280;70055;39.436;-77.514;2023-08-31T11:17:37;99191.41;;;17.47;47.76
80693;BME280;70055;39.436;-77.514;2023-08-31T11:20:06;99186.23;;;17.36;46.73
80693;BME280;70055;39.436;-77.514;2023-08-31T11:22:39;99194.22;;;16.56;48.14
80693;BME280;70055;39.436;-77.514;2023-08-31T11:25:09;99190.36;;;17.03;47.30
80693;BME280;70055;39.436;-77.514;2023-08-31T11:27:39;99200.97;;;16.31;49.19
80693;BME280;70055;39.436;-77.514;2023-08-31T11:30:13;99193.53;;;17.46;47.02
80693;BME280;70055;39.436;-77.514;2023-08-31T11:32:46;99204.20;;;17.29;47.68
80693;BME280;70055;39.436;-77.514;2023-08-31T11:35:16;99202.99;;;16.75;49.02
80693;BME280;70055;39.436;-77.514;2023-08-31T11:37:44;99208.38;;;17.05;48.20
80693;BME280;70055;39.436;-77.514;2023-08-31T11:40:15;99205.02;;;15.94;50.37
80693;BME280;70055;39.436;-77.514;2023-08-31T11:42:43;99205.77;;;16.00;50.77
80693;BME280;70055;39.436;-77.514;2023-08-31T11:45:11;99206.87;;;15.00;53.29
80693;BME280;70055;39.436;-77.514;2023-08-31T11:47:41;99213.82;;;15.81;51.22
80693;BME280;70055;39.436;-77.514;2023-08-31T11:50:12;99218.99;;;14.64;54.73
80693;BME280;70055;39.436;-77.514;2023-08-31T11:52:42;99229.98;;;13.39;56.39
80693;BME280;70055;39.436;-77.514;2023-08-31T11:55:12;99220.15;;;13.93;57.07
80693;BME280;70055;39.436;-77.514;2023-08-31T11:57:40;99221.00;;;14.89;53.59
80693;BME280;70055;39.436;-77.514;2023-08-31T12:00:09;99228.45;;;14.48;54.73
80693;BME280;70055;39.436;-77.514;2023-08-31T12:02:38;99229.21;;;14.61;54.07
80693;BME280;70055;39.436;-77.514;2023-08-31T12:05:07;99230.48;;;15.49;53.61
80693;BME280;70055;39.436;-77.514;2023-08-31T12:07:40;99234.61;;;16.33;50.48
80693;BME280;70055;39.436;-77.514;2023-08-31T12:10:09;99227.26;;;17.48;48.78
80693;BME280;70055;39.436;-77.514;2023-08-31T12:12:37;99236.77;;;14.98;52.00
80693;BME280;70055;39.436;-77.514;2023-08-31T12:15:07;99246.08;;;13.75;55.09
80693;BME280;70055;39.436;-77.514;2023-08-31T12:17:38;99248.57;;;15.28;53.76
80693;BME280;70055;39.436;-77.514;2023-08-31T12:20:07;99241.87;;;15.14;52.99
80693;BME280;70055;39.436;-77.514;2023-08-31T12:22:35;99248.01;;;14.28;55.24
80693;BME280;70055;39.436;-77.514;2023-08-31T12:25:04;99243.45;;;15.09;53.62
80693;BME280;70055;39.436;-77.514;2023-08-31T12:27:33;99246.52;;;14.81;54.01
80693;BME280;70055;39.436;-77.514;2023-08-31T12:30:02;99244.85;;;16.23;51.57
80693;BME280;70055;39.436;-77.514;2023-08-31T12:32:31;99245.87;;;14.93;51.15
80693;BME280;70055;39.436;-77.514;2023-08-31T12:34:59;99246.20;;;16.21;50.19
80693;BME280;70055;39.436;-77.514;2023-08-31T12:37:28;99249.39;;;14.87;51.36
80693;BME280;70055;39.436;-77.514;2023-08-31T12:39:57;99260.85;;;15.44;51.64
80693;BME280;70055;39.436;-77.514;2023-08-31T12:42:25;99262.98;;;15.23;51.49
80693;BME280;70055;39.436;-77.514;2023-08-31T12:44:54;99262.16;;;16.12;50.90
80693;BME280;70055;39.436;-77.514;2023-08-31T12:47:22;99269.12;;;15.58;51.64
80693;BME280;70055;39.436;-77.514;2023-08-31T12:49:50;99268.79;;;15.75;50.35
80693;BME280;70055;39.436;-77.514;2023-08-31T12:52:19;99270.45;;;17.16;50.12